sensor_id;sensor_type;location;lat;lon;timestamp;pressure;altitude;pressure_sealevel;temperature;humidity
929;BME280;451;47.988;7.842;2023-03-03T00:05:53;98735.81;;;2.07;100.00
929;BME280;451;47.988;7.842;2023-03-03T00:14:56;98735.69;;;1.84;100.00
929;BME280;451;47.988;7.842;2023-03-03T00:24:19;98744.84;;;1.77;100.00
929;BME280;451;47.988;7.842;2023-03-03T00:33:30;98741.91;;;1.82;100.00
929;BME280;451;47.988;7.842;2023-03-03T00:42:38;98738.97;;;1.62;100.00
929;BME280;451;47.988;7.842;2023-03-03T00:51:43;98749.47;;;1.48;100.00
929;BME280;451;47.988;7.842;2023-03-03T01:00:47;98757.78;;;1.28;100.00
929;BME280;451;47.988;7.842;2023-03-03T01:09:53;98754.03;;;1.32;100.00
929;BME280;451;47.988;7.842;2023-03-03T01:18:58;98744.81;;;1.41;100.00
929;BME280;451;47.988;7.842;2023-03-03T01:28:01;98736.44;;;1.50;100.00
929;BME280;451;47.988;7.842;2023-03-03T01:37:05;98745.00;;;1.38;100.00
929;BME280;451;47.988;7.842;2023-03-03T01:46:30;98748.44;;;1.38;100.00
929;BME280;451;47.988;7.842;2023-03-03T01:55:38;98740.66;;;1.38;100.00
929;BME280;451;47.988;7.842;2023-03-03T02:04:42;98721.22;;;1.20;100.00
929;BME280;451;47.988;7.842;2023-03-03T02:13:47;98722.94;;;1.45;100.00
929;BME280;451;47.988;7.842;2023-03-03T02:22:56;98723.06;;;1.43;100.00
929;BME280;451;47.988;7.842;2023-03-03T02:32:01;98745.25;;;1.35;100.00
929;BME280;451;47.988;7.842;2023-03-03T02:41:09;98709.06;;;1.46;100.00
929;BME280;451;47.988;7.842;2023-03-03T02:50:15;98696.81;;;1.11;100.00
929;BME280;451;47.988;7.842;2023-03-03T02:59:18;98620.47;;;0.80;100.00
929;BME280;451;47.988;7.842;2023-03-03T03:08:25;98701.56;;;1.30;100.00
929;BME280;451;47.988;7.842;2023-03-03T03:17:28;98701.25;;;1.22;100.00
929;BME280;451;47.988;7.842;2023-03-03T03:26:32;98661.28;;;1.13;100.00
929;BME280;451;47.988;7.842;2023-03-03T03:35:36;98720.94;;;1.25;100.00
929;BME280;451;47.988;7.842;2023-03-03T03:44:41;98717.94;;;1.18;100.00
929;BME280;451;47.988;7.842;2023-03-03T03:53:44;98729.72;;;1.09;100.00
929;BME280;451;47.988;7.842;2023-03-03T04:02:48;98733.06;;;0.99;100.00
929;BME280;451;47.988;7.842;2023-03-03T04:11:53;98709.34;;;0.92;100.00
929;BME280;451;47.988;7.842;2023-03-03T04:20:59;98733.56;;;1.04;100.00
929;BME280;451;47.988;7.842;2023-03-03T04:30:04;98756.75;;;1.18;100.00
929;BME280;451;47.988;7.842;2023-03-03T04:39:10;98740.78;;;1.37;100.00
929;BME280;451;47.988;7.842;2023-03-03T04:48:13;98694.09;;;1.00;100.00
929;BME280;451;47.988;7.842;2023-03-03T04:57:18;98742.53;;;1.85;100.00
929;BME280;451;47.988;7.842;2023-03-03T05:06:22;98750.88;;;1.65;100.00
929;BME280;451;47.988;7.842;2023-03-03T05:15:26;98750.81;;;1.90;100.00
929;BME280;451;47.988;7.842;2023-03-03T05:24:29;98747.72;;;1.85;100.00
929;BME280;451;47.988;7.842;2023-03-03T05:33:34;98744.59;;;1.93;100.00
929;BME280;451;47.988;7.842;2023-03-03T05:42:37;98764.13;;;2.10;100.00
929;BME280;451;47.988;7.842;2023-03-03T05:51:41;98765.34;;;1.93;100.00
929;BME280;451;47.988;7.842;2023-03-03T06:00:44;98767.09;;;1.92;100.00
929;BME280;451;47.988;7.842;2023-03-03T06:09:49;98770.63;;;2.15;100.00
929;BME280;451;47.988;7.842;2023-03-03T06:18:52;98775.16;;;2.24;100.00
929;BME280;451;47.988;7.842;2023-03-03T06:27:56;98766.38;;;2.38;100.00
929;BME280;451;47.988;7.842;2023-03-03T06:36:59;98798.09;;;2.41;100.00
929;BME280;451;47.988;7.842;2023-03-03T06:46:04;98773.91;;;2.30;100.00
929;BME280;451;47.988;7.842;2023-03-03T06:55:12;98807.63;;;2.65;100.00
929;BME280;451;47.988;7.842;2023-03-03T07:04:28;98818.59;;;2.92;100.00
929;BME280;451;47.988;7.842;2023-03-03T07:13:33;98735.63;;;3.02;100.00
929;BME280;451;47.988;7.842;2023-03-03T07:22:37;98831.34;;;3.63;99.64
929;BME280;451;47.988;7.842;2023-03-03T07:31:41;98833.59;;;4.56;94.12
929;BME280;451;47.988;7.842;2023-03-03T07:40:50;98837.47;;;4.93;90.49
929;BME280;451;47.988;7.842;2023-03-03T07:49:55;98831.69;;;5.10;87.70
929;BME280;451;47.988;7.842;2023-03-03T07:59:02;98874.53;;;5.59;85.42
929;BME280;451;47.988;7.842;2023-03-03T08:08:27;98855.13;;;5.82;83.67
929;BME280;451;47.988;7.842;2023-03-03T08:17:41;98878.19;;;5.77;83.03
929;BME280;451;47.988;7.842;2023-03-03T08:26:44;98875.16;;;5.72;84.57
929;BME280;451;47.988;7.842;2023-03-03T08:35:48;98850.56;;;5.95;83.57
929;BME280;451;47.988;7.842;2023-03-03T08:44:51;98852.66;;;6.70;80.54
929;BME280;451;47.988;7.842;2023-03-03T08:53:56;98873.22;;;6.35;83.57
929;BME280;451;47.988;7.842;2023-03-03T09:02:59;98869.06;;;6.92;80.26
929;BME280;451;47.988;7.842;2023-03-03T09:12:12;98870.28;;;7.07;77.22
929;BME280;451;47.988;7.842;2023-03-03T09:21:22;98871.38;;;7.14;73.11
929;BME280;451;47.988;7.842;2023-03-03T09:30:38;98873.44;;;6.72;77.41
929;BME280;451;47.988;7.842;2023-03-03T09:39:44;98869.31;;;6.88;75.66
929;BME280;451;47.988;7.842;2023-03-03T09:49:00;98870.25;;;6.49;78.09
929;BME280;451;47.988;7.842;2023-03-03T09:58:24;98800.69;;;5.89;78.88
929;BME280;451;47.988;7.842;2023-03-03T10:07:38;98885.09;;;6.58;78.32
929;BME280;451;47.988;7.842;2023-03-03T10:17:14;98880.72;;;7.26;74.37
929;BME280;451;47.988;7.842;2023-03-03T10:26:35;98855.69;;;6.95;75.49
929;BME280;451;47.988;7.842;2023-03-03T10:35:48;98881.06;;;7.69;72.34
929;BME280;451;47.988;7.842;2023-03-03T10:45:11;98868.75;;;7.14;72.65
929;BME280;451;47.988;7.842;2023-03-03T10:54:27;98886.69;;;7.84;71.40
929;BME280;451;47.988;7.842;2023-03-03T11:03:57;98883.69;;;8.43;68.94
929;BME280;451;47.988;7.842;2023-03-03T11:13:11;98886.50;;;7.95;69.27
929;BME280;451;47.988;7.842;2023-03-03T11:22:30;98870.53;;;7.89;68.59
929;BME280;451;47.988;7.842;2023-03-03T11:31:38;98871.06;;;8.29;69.02
929;BME280;451;47.988;7.842;2023-03-03T11:40:50;98869.09;;;8.86;66.82
929;BME280;451;47.988;7.842;2023-03-03T11:50:00;98867.25;;;9.65;63.90
929;BME280;451;47.988;7.842;2023-03-03T11:59:16;98836.47;;;9.76;63.33
929;BME280;451;47.988;7.842;2023-03-03T12:08:31;98832.31;;;10.99;60.46
929;BME280;451;47.988;7.842;2023-03-03T12:17:52;98834.75;;;11.01;59.73
929;BME280;451;47.988;7.842;2023-03-03T12:27:09;98808.13;;;10.79;59.57
929;BME280;451;47.988;7.842;2023-03-03T12:36:24;98820.91;;;10.82;59.29
929;BME280;451;47.988;7.842;2023-03-03T12:45:38;98810.97;;;10.28;60.56
929;BME280;451;47.988;7.842;2023-03-03T12:54:58;98752.66;;;10.24;61.52
929;BME280;451;47.988;7.842;2023-03-03T13:04:10;98795.75;;;12.00;56.96
929;BME280;451;47.988;7.842;2023-03-03T13:13:23;98773.13;;;9.45;63.27
929;BME280;451;47.988;7.842;2023-03-03T13:22:41;98805.06;;;9.92;64.03
929;BME280;451;47.988;7.842;2023-03-03T13:31:49;98803.56;;;10.23;62.73
929;BME280;451;47.988;7.842;2023-03-03T13:40:59;98799.38;;;10.71;62.48
929;BME280;451;47.988;7.842;2023-03-03T13:50:21;98800.19;;;10.13;63.42
929;BME280;451;47.988;7.842;2023-03-03T13:59:33;98794.13;;;10.12;63.77
929;BME280;451;47.988;7.842;2023-03-03T14:08:53;98764.25;;;10.05;63.28
929;BME280;451;47.988;7.842;2023-03-03T14:18:17;98771.44;;;10.03;65.82
929;BME280;451;47.988;7.842;2023-03-03T14:27:26;98768.81;;;9.10;67.91
929;BME280;451;47.988;7.842;2023-03-03T14:36:31;98759.00;;;8.86;68.86
929;BME280;451;47.988;7.842;2023-03-03T14:45:38;98775.03;;;9.09;71.40
929;BME280;451;47.988;7.842;2023-03-03T14:54:43;98769.69;;;9.18;70.17
929;BME280;451;47.988;7.842;2023-03-03T15:03:51;98764.84;;;9.06;70.25
929;BME280;451;47.988;7.842;2023-03-03T15:13:23;98765.66;;;9.06;68.87
929;BME280;451;47.988;7.842;2023-03-03T15:22:44;98762.69;;;9.01;68.97
929;BME280;451;47.988;7.842;2023-03-03T15:31:51;98761.06;;;9.26;68.05
929;BME280;451;47.988;7.842;2023-03-03T15:41:07;98741.63;;;9.37;66.37
929;BME280;451;47.988;7.842;2023-03-03T15:50:39;98769.81;;;9.35;66.64
929;BME280;451;47.988;7.842;2023-03-03T16:00:02;98769.25;;;9.23;67.76
929;BME280;451;47.988;7.842;2023-03-03T16:09:23;98765.41;;;9.43;66.84
929;BME280;451;47.988;7.842;2023-03-03T16:18:44;98777.09;;;8.97;67.86
929;BME280;451;47.988;7.842;2023-03-03T16:27:56;98787.16;;;8.84;68.18
929;BME280;451;47.988;7.842;2023-03-03T16:37:11;98798.97;;;8.88;67.90
929;BME280;451;47.988;7.842;2023-03-03T16:46:27;98807.66;;;9.32;67.83
929;BME280;451;47.988;7.842;2023-03-03T16:55:37;98813.53;;;9.26;67.50
929;BME280;451;47.988;7.842;2023-03-03T17:04:46;98829.59;;;9.49;67.01
929;BME280;451;47.988;7.842;2023-03-03T17:23:41;98835.34;;;9.26;69.34
929;BME280;451;47.988;7.842;2023-03-03T17:33:04;98840.22;;;8.68;73.14
929;BME280;451;47.988;7.842;2023-03-03T17:42:14;98855.94;;;8.23;77.21
929;BME280;451;47.988;7.842;2023-03-03T17:51:53;98872.22;;;8.17;77.55
929;BME280;451;47.988;7.842;2023-03-03T18:01:07;98869.75;;;8.16;78.04
929;BME280;451;47.988;7.842;2023-03-03T18:10:40;98882.53;;;7.35;83.63
929;BME280;451;47.988;7.842;2023-03-03T18:29:25;98880.16;;;7.32;82.96
929;BME280;451;47.988;7.842;2023-03-03T18:38:38;98872.47;;;7.21;84.40
929;BME280;451;47.988;7.842;2023-03-03T18:48:08;98913.50;;;7.30;86.12
929;BME280;451;47.988;7.842;2023-03-03T18:57:16;98875.09;;;6.82;88.04
929;BME280;451;47.988;7.842;2023-03-03T19:06:31;98916.22;;;6.80;89.32
929;BME280;451;47.988;7.842;2023-03-03T19:15:55;98943.38;;;6.49;91.99
929;BME280;451;47.988;7.842;2023-03-03T19:25:24;98977.66;;;6.35;93.24
929;BME280;451;47.988;7.842;2023-03-03T19:34:38;98866.88;;;5.67;94.04
929;BME280;451;47.988;7.842;2023-03-03T19:43:51;98843.19;;;5.08;95.16
929;BME280;451;47.988;7.842;2023-03-03T19:53:04;98951.28;;;5.66;97.92
929;BME280;451;47.988;7.842;2023-03-03T20:02:27;98957.28;;;5.25;100.00
929;BME280;451;47.988;7.842;2023-03-03T20:11:48;98958.66;;;5.08;100.00
929;BME280;451;47.988;7.842;2023-03-03T20:21:05;98962.53;;;4.71;100.00
929;BME280;451;47.988;7.842;2023-03-03T20:30:17;98948.56;;;4.72;100.00
929;BME280;451;47.988;7.842;2023-03-03T20:39:44;98937.00;;;4.31;100.00
929;BME280;451;47.988;7.842;2023-03-03T20:49:01;99035.69;;;4.45;100.00
929;BME280;451;47.988;7.842;2023-03-03T20:58:13;98953.81;;;4.16;100.00
929;BME280;451;47.988;7.842;2023-03-03T21:07:25;98997.13;;;4.17;100.00
929;BME280;451;47.988;7.842;2023-03-03T21:16:31;98971.78;;;3.86;100.00
929;BME280;451;47.988;7.842;2023-03-03T21:25:44;98938.13;;;3.49;100.00
929;BME280;451;47.988;7.842;2023-03-03T21:35:03;98969.53;;;3.46;100.00
929;BME280;451;47.988;7.842;2023-03-03T21:44:27;99017.19;;;3.69;100.00
929;BME280;451;47.988;7.842;2023-03-03T21:53:35;98880.34;;;2.52;100.00
929;BME280;451;47.988;7.842;2023-03-03T22:02:52;98992.63;;;3.38;100.00
929;BME280;451;47.988;7.842;2023-03-03T22:11:56;99022.06;;;3.39;100.00
929;BME280;451;47.988;7.842;2023-03-03T22:21:00;98984.72;;;3.05;100.00
929;BME280;451;47.988;7.842;2023-03-03T22:30:04;99026.03;;;3.08;100.00
929;BME280;451;47.988;7.842;2023-03-03T22:39:09;99013.78;;;3.10;100.00
929;BME280;451;47.988;7.842;2023-03-03T22:48:12;98991.69;;;3.39;100.00
929;BME280;451;47.988;7.842;2023-03-03T22:57:17;99021.91;;;3.29;100.00
929;BME280;451;47.988;7.842;2023-03-03T23:06:20;99014.66;;;2.98;100.00
929;BME280;451;47.988;7.842;2023-03-03T23:15:24;99046.25;;;2.92;100.00
929;BME280;451;47.988;7.842;2023-03-03T23:24:27;99012.84;;;2.74;100.00
929;BME280;451;47.988;7.842;2023-03-03T23:33:32;99019.25;;;2.81;100.00
929;BME280;451;47.988;7.842;2023-03-03T23:42:37;99024.38;;;3.07;100.00
929;BME280;451;47.988;7.842;2023-03-03T23:51:41;98964.34;;;2.38;100.00
